sensor_id;sensor_type;location;lat;lon;timestamp;temperature;humidity
44671;DHT22;48397;53.016;-2.260;2023-04-01T00:01:14;8.90;99.90
44671;DHT22;48397;53.016;-2.260;2023-04-01T00:03:44;9.60;99.90
44671;DHT22;48397;53.016;-2.260;2023-04-01T00:06:14;9.60;99.90
44671;DHT22;48397;53.016;-2.260;2023-04-01T00:08:42;9.60;99.90
44671;DHT22;48397;53.016;-2.260;2023-04-01T00:11:14;9.60;99.90
44671;DHT22;48397;53.016;-2.260;2023-04-01T00:13:43;9.60;99.90
44671;DHT22;48397;53.016;-2.260;2023-04-01T00:16:14;9.70;99.90
44671;DHT22;48397;53.016;-2.260;2023-04-01T00:18:51;9.60;99.90
44671;DHT22;48397;53.016;-2.260;2023-04-01T00:21:22;9.50;99.90
44671;DHT22;48397;53.016;-2.260;2023-04-01T00:23:52;9.40;99.90
44671;DHT22;48397;53.016;-2.260;2023-04-01T00:26:20;9.30;99.90
44671;DHT22;48397;53.016;-2.260;2023-04-01T00:28:49;9.20;99.90
44671;DHT22;48397;53.016;-2.260;2023-04-01T00:31:20;9.20;99.90
44671;DHT22;48397;53.016;-2.260;2023-04-01T00:33:48;9.20;99.90
44671;DHT22;48397;53.016;-2.260;2023-04-01T00:36:19;9.20;99.90
44671;DHT22;48397;53.016;-2.260;2023-04-01T00:38:47;9.20;99.90
44671;DHT22;48397;53.016;-2.260;2023-04-01T00:41:15;9.10;99.90
44671;DHT22;48397;53.016;-2.260;2023-04-01T00:43:48;9.10;99.90
44671;DHT22;48397;53.016;-2.260;2023-04-01T00:46:18;9.10;99.90
44671;DHT22;48397;53.016;-2.260;2023-04-01T00:48:53;9.10;99.90
44671;DHT22;48397;53.016;-2.260;2023-04-01T00:51:27;9.10;99.90
44671;DHT22;48397;53.016;-2.260;2023-04-01T00:53:58;9.10;99.90
44671;DHT22;48397;53.016;-2.260;2023-04-01T00:56:36;9.10;99.90
44671;DHT22;48397;53.016;-2.260;2023-04-01T00:59:08;9.00;99.90
44671;DHT22;48397;53.016;-2.260;2023-04-01T01:01:38;9.00;99.90
44671;DHT22;48397;53.016;-2.260;2023-04-01T01:04:06;9.00;99.90
44671;DHT22;48397;53.016;-2.260;2023-04-01T01:12:39;8.90;99.90
44671;DHT22;48397;53.016;-2.260;2023-04-01T01:18:16;8.90;99.90
44671;DHT22;48397;53.016;-2.260;2023-04-01T01:24:08;8.90;99.90
44671;DHT22;48397;53.016;-2.260;2023-04-01T01:27:12;7.30;99.90
44671;DHT22;48397;53.016;-2.260;2023-04-01T01:32:59;8.80;99.90
44671;DHT22;48397;53.016;-2.260;2023-04-01T01:35:45;8.80;99.90
44671;DHT22;48397;53.016;-2.260;2023-04-01T01:38:22;8.80;99.90
44671;DHT22;48397;53.016;-2.260;2023-04-01T01:41:03;8.80;99.90
44671;DHT22;48397;53.016;-2.260;2023-04-01T01:43:44;8.80;99.90
44671;DHT22;48397;53.016;-2.260;2023-04-01T01:46:19;8.80;99.90
44671;DHT22;48397;53.016;-2.260;2023-04-01T01:48:50;8.80;99.90
44671;DHT22;48397;53.016;-2.260;2023-04-01T01:51:20;8.70;99.90
44671;DHT22;48397;53.016;-2.260;2023-04-01T01:53:49;8.70;99.90
44671;DHT22;48397;53.016;-2.260;2023-04-01T01:56:23;8.70;99.90
44671;DHT22;48397;53.016;-2.260;2023-04-01T01:59:00;8.70;99.90
44671;DHT22;48397;53.016;-2.260;2023-04-01T02:01:31;8.60;99.90
44671;DHT22;48397;53.016;-2.260;2023-04-01T02:04:10;8.60;99.90
44671;DHT22;48397;53.016;-2.260;2023-04-01T02:06:44;8.60;99.90
44671;DHT22;48397;53.016;-2.260;2023-04-01T02:09:14;8.50;99.90
44671;DHT22;48397;53.016;-2.260;2023-04-01T02:11:46;8.60;99.90
44671;DHT22;48397;53.016;-2.260;2023-04-01T02:14:22;8.50;99.90
44671;DHT22;48397;53.016;-2.260;2023-04-01T02:17:05;8.60;99.90
44671;DHT22;48397;53.016;-2.260;2023-04-01T02:19:39;8.50;99.90
44671;DHT22;48397;53.016;-2.260;2023-04-01T02:22:13;8.50;99.90
44671;DHT22;48397;53.016;-2.260;2023-04-01T02:24:43;8.60;99.90
44671;DHT22;48397;53.016;-2.260;2023-04-01T02:27:13;8.50;99.90
44671;DHT22;48397;53.016;-2.260;2023-04-01T02:29:41;8.50;99.90
44671;DHT22;48397;53.016;-2.260;2023-04-01T02:32:09;8.40;99.90
44671;DHT22;48397;53.016;-2.260;2023-04-01T02:34:37;8.40;99.90
44671;DHT22;48397;53.016;-2.260;2023-04-01T02:37:06;8.40;99.90
44671;DHT22;48397;53.016;-2.260;2023-04-01T02:39:34;8.40;99.90
44671;DHT22;48397;53.016;-2.260;2023-04-01T02:42:02;8.40;99.90
44671;DHT22;48397;53.016;-2.260;2023-04-01T02:44:31;8.40;99.90
44671;DHT22;48397;53.016;-2.260;2023-04-01T02:46:59;8.40;99.90
44671;DHT22;48397;53.016;-2.260;2023-04-01T02:49:27;8.40;99.90
44671;DHT22;48397;53.016;-2.260;2023-04-01T02:51:55;8.30;99.90
44671;DHT22;48397;53.016;-2.260;2023-04-01T02:54:24;8.40;99.90
44671;DHT22;48397;53.016;-2.260;2023-04-01T02:56:51;8.30;99.90
44671;DHT22;48397;53.016;-2.260;2023-04-01T02:59:19;8.20;99.90
44671;DHT22;48397;53.016;-2.260;2023-04-01T03:01:47;8.20;99.90
44671;DHT22;48397;53.016;-2.260;2023-04-01T03:04:15;8.20;99.90
44671;DHT22;48397;53.016;-2.260;2023-04-01T03:06:43;8.20;99.90
44671;DHT22;48397;53.016;-2.260;2023-04-01T03:09:10;8.10;99.90
44671;DHT22;48397;53.016;-2.260;2023-04-01T03:11:38;8.10;99.90
44671;DHT22;48397;53.016;-2.260;2023-04-01T03:14:06;8.10;99.90
44671;DHT22;48397;53.016;-2.260;2023-04-01T03:16:34;8.00;99.90
44671;DHT22;48397;53.016;-2.260;2023-04-01T03:19:03;7.90;99.90
44671;DHT22;48397;53.016;-2.260;2023-04-01T03:24:00;7.90;99.90
44671;DHT22;48397;53.016;-2.260;2023-04-01T03:26:29;7.90;99.90
44671;DHT22;48397;53.016;-2.260;2023-04-01T03:28:58;7.80;99.90
44671;DHT22;48397;53.016;-2.260;2023-04-01T03:31:26;7.70;99.90
44671;DHT22;48397;53.016;-2.260;2023-04-01T03:33:56;7.70;99.90
44671;DHT22;48397;53.016;-2.260;2023-04-01T03:36:27;7.60;99.90
44671;DHT22;48397;53.016;-2.260;2023-04-01T03:38:55;7.60;99.90
44671;DHT22;48397;53.016;-2.260;2023-04-01T03:41:36;7.60;99.90
44671;DHT22;48397;53.016;-2.260;2023-04-01T03:44:05;6.00;99.90
44671;DHT22;48397;53.016;-2.260;2023-04-01T03:46:34;7.50;99.90
44671;DHT22;48397;53.016;-2.260;2023-04-01T03:53:59;7.40;99.90
44671;DHT22;48397;53.016;-2.260;2023-04-01T03:56:28;7.30;99.90
44671;DHT22;48397;53.016;-2.260;2023-04-01T03:58:55;7.30;99.90
44671;DHT22;48397;53.016;-2.260;2023-04-01T04:01:23;7.20;99.90
44671;DHT22;48397;53.016;-2.260;2023-04-01T04:03:54;7.20;99.90
44671;DHT22;48397;53.016;-2.260;2023-04-01T04:06:24;7.10;99.90
44671;DHT22;48397;53.016;-2.260;2023-04-01T04:08:53;7.10;99.90
44671;DHT22;48397;53.016;-2.260;2023-04-01T04:11:21;7.10;99.90
44671;DHT22;48397;53.016;-2.260;2023-04-01T04:13:51;7.10;99.90
44671;DHT22;48397;53.016;-2.260;2023-04-01T04:16:20;7.20;99.90
44671;DHT22;48397;53.016;-2.260;2023-04-01T04:18:56;7.20;99.90
44671;DHT22;48397;53.016;-2.260;2023-04-01T04:21:23;7.20;99.90
44671;DHT22;48397;53.016;-2.260;2023-04-01T04:23:51;7.20;99.90
44671;DHT22;48397;53.016;-2.260;2023-04-01T04:26:21;7.30;99.90
44671;DHT22;48397;53.016;-2.260;2023-04-01T04:28:57;7.30;99.90
44671;DHT22;48397;53.016;-2.260;2023-04-01T04:33:59;7.40;99.90
44671;DHT22;48397;53.016;-2.260;2023-04-01T04:36:31;7.40;99.90
44671;DHT22;48397;53.016;-2.260;2023-04-01T04:38:58;7.40;99.90
44671;DHT22;48397;53.016;-2.260;2023-04-01T04:41:31;7.50;99.90
44671;DHT22;48397;53.016;-2.260;2023-04-01T04:44:01;7.50;99.90
44671;DHT22;48397;53.016;-2.260;2023-04-01T04:46:28;7.50;99.90
44671;DHT22;48397;53.016;-2.260;2023-04-01T04:49:05;7.50;99.90
44671;DHT22;48397;53.016;-2.260;2023-04-01T04:51:33;7.50;99.90
44671;DHT22;48397;53.016;-2.260;2023-04-01T04:54:04;7.50;99.90
44671;DHT22;48397;53.016;-2.260;2023-04-01T04:56:45;7.60;99.90
44671;DHT22;48397;53.016;-2.260;2023-04-01T04:59:13;7.60;99.90
44671;DHT22;48397;53.016;-2.260;2023-04-01T05:01:47;7.60;99.90
44671;DHT22;48397;53.016;-2.260;2023-04-01T05:04:15;7.60;99.90
44671;DHT22;48397;53.016;-2.260;2023-04-01T05:06:44;7.70;99.90
44671;DHT22;48397;53.016;-2.260;2023-04-01T05:09:12;7.60;99.90
44671;DHT22;48397;53.016;-2.260;2023-04-01T05:11:40;7.70;99.90
44671;DHT22;48397;53.016;-2.260;2023-04-01T05:14:16;7.70;99.90
44671;DHT22;48397;53.016;-2.260;2023-04-01T05:16:52;7.70;99.90
44671;DHT22;48397;53.016;-2.260;2023-04-01T05:19:22;7.70;99.90
44671;DHT22;48397;53.016;-2.260;2023-04-01T05:21:50;7.60;99.90
44671;DHT22;48397;53.016;-2.260;2023-04-01T05:24:18;7.70;99.90
44671;DHT22;48397;53.016;-2.260;2023-04-01T05:26:46;7.70;99.90
44671;DHT22;48397;53.016;-2.260;2023-04-01T05:29:14;7.70;99.90
44671;DHT22;48397;53.016;-2.260;2023-04-01T05:34:15;7.70;99.90
44671;DHT22;48397;53.016;-2.260;2023-04-01T05:36:45;7.70;99.90
44671;DHT22;48397;53.016;-2.260;2023-04-01T05:39:14;7.80;99.90
44671;DHT22;48397;53.016;-2.260;2023-04-01T05:41:42;7.70;99.90
44671;DHT22;48397;53.016;-2.260;2023-04-01T05:44:12;7.70;99.90
44671;DHT22;48397;53.016;-2.260;2023-04-01T05:47:00;7.70;99.90
44671;DHT22;48397;53.016;-2.260;2023-04-01T05:49:28;7.70;99.90
44671;DHT22;48397;53.016;-2.260;2023-04-01T05:51:56;7.70;99.90
44671;DHT22;48397;53.016;-2.260;2023-04-01T05:54:25;7.70;99.90
44671;DHT22;48397;53.016;-2.260;2023-04-01T05:59:21;7.70;99.90
44671;DHT22;48397;53.016;-2.260;2023-04-01T06:01:49;7.70;99.90
44671;DHT22;48397;53.016;-2.260;2023-04-01T06:04:17;7.70;99.90
44671;DHT22;48397;53.016;-2.260;2023-04-01T06:06:45;7.70;99.90
44671;DHT22;48397;53.016;-2.260;2023-04-01T06:09:15;7.70;99.90
44671;DHT22;48397;53.016;-2.260;2023-04-01T06:16:04;7.70;99.90
44671;DHT22;48397;53.016;-2.260;2023-04-01T06:27:01;7.80;99.90
44671;DHT22;48397;53.016;-2.260;2023-04-01T06:32:22;7.90;99.90
44671;DHT22;48397;53.016;-2.260;2023-04-01T06:41:24;7.90;99.90
44671;DHT22;48397;53.016;-2.260;2023-04-01T06:43:55;7.90;99.90
44671;DHT22;48397;53.016;-2.260;2023-04-01T06:46:57;8.00;99.90
44671;DHT22;48397;53.016;-2.260;2023-04-01T06:52:59;8.00;99.90
44671;DHT22;48397;53.016;-2.260;2023-04-01T06:56:05;7.90;99.90
44671;DHT22;48397;53.016;-2.260;2023-04-01T06:59:05;7.60;99.90
44671;DHT22;48397;53.016;-2.260;2023-04-01T07:01:39;7.90;99.90
44671;DHT22;48397;53.016;-2.260;2023-04-01T07:04:31;8.00;99.90
44671;DHT22;48397;53.016;-2.260;2023-04-01T07:09:55;8.00;99.90
44671;DHT22;48397;53.016;-2.260;2023-04-01T07:12:33;8.00;99.90
44671;DHT22;48397;53.016;-2.260;2023-04-01T07:15:26;8.00;99.90
44671;DHT22;48397;53.016;-2.260;2023-04-01T07:18:21;8.00;99.90
44671;DHT22;48397;53.016;-2.260;2023-04-01T07:20:49;8.00;99.90
44671;DHT22;48397;53.016;-2.260;2023-04-01T07:23:29;8.00;99.90
44671;DHT22;48397;53.016;-2.260;2023-04-01T07:26:22;8.00;99.90
44671;DHT22;48397;53.016;-2.260;2023-04-01T07:28:54;8.00;99.90
44671;DHT22;48397;53.016;-2.260;2023-04-01T07:37:17;8.20;99.90
44671;DHT22;48397;53.016;-2.260;2023-04-01T07:45:49;8.50;99.90
44671;DHT22;48397;53.016;-2.260;2023-04-01T07:48:53;8.70;99.90
44671;DHT22;48397;53.016;-2.260;2023-04-01T07:54:07;8.80;99.90
44671;DHT22;48397;53.016;-2.260;2023-04-01T07:56:41;8.90;99.90
44671;DHT22;48397;53.016;-2.260;2023-04-01T07:59:28;9.00;99.90
44671;DHT22;48397;53.016;-2.260;2023-04-01T08:05:09;8.80;99.90
44671;DHT22;48397;53.016;-2.260;2023-04-01T08:14:27;8.80;99.90
44671;DHT22;48397;53.016;-2.260;2023-04-01T08:23:21;9.00;99.90
44671;DHT22;48397;53.016;-2.260;2023-04-01T08:28:53;9.10;99.90
44671;DHT22;48397;53.016;-2.260;2023-04-01T08:31:46;9.20;99.90
44671;DHT22;48397;53.016;-2.260;2023-04-01T08:34:21;9.20;99.90
44671;DHT22;48397;53.016;-2.260;2023-04-01T08:37:04;9.20;99.90
44671;DHT22;48397;53.016;-2.260;2023-04-01T08:39:44;9.20;99.90
44671;DHT22;48397;53.016;-2.260;2023-04-01T08:45:44;9.30;99.90
44671;DHT22;48397;53.016;-2.260;2023-04-01T09:02:50;9.40;99.90
44671;DHT22;48397;53.016;-2.260;2023-04-01T09:14:32;9.40;99.90
44671;DHT22;48397;53.016;-2.260;2023-04-01T09:26:01;9.10;99.90
44671;DHT22;48397;53.016;-2.260;2023-04-01T09:51:37;9.90;99.90
44671;DHT22;48397;53.016;-2.260;2023-04-01T09:59:55;10.40;99.90
44671;DHT22;48397;53.016;-2.260;2023-04-01T10:17:06;11.10;99.90
44671;DHT22;48397;53.016;-2.260;2023-04-01T10:28:50;11.40;99.90
44671;DHT22;48397;53.016;-2.260;2023-04-01T10:37:42;11.10;99.90
44671;DHT22;48397;53.016;-2.260;2023-04-01T11:37:42;11.20;99.90
44671;DHT22;48397;53.016;-2.260;2023-04-01T11:41:07;11.30;99.90
44671;DHT22;48397;53.016;-2.260;2023-04-01T11:44:33;11.30;99.90
44671;DHT22;48397;53.016;-2.260;2023-04-01T11:47:30;11.30;99.90
44671;DHT22;48397;53.016;-2.260;2023-04-01T11:50:21;11.30;99.90
44671;DHT22;48397;53.016;-2.260;2023-04-01T11:53:23;11.20;99.90
44671;DHT22;48397;53.016;-2.260;2023-04-01T11:56:23;11.20;99.90
44671;DHT22;48397;53.016;-2.260;2023-04-01T11:59:04;11.10;99.90
44671;DHT22;48397;53.016;-2.260;2023-04-01T12:04:58;11.20;99.90
44671;DHT22;48397;53.016;-2.260;2023-04-01T12:07:38;11.20;99.90
44671;DHT22;48397;53.016;-2.260;2023-04-01T12:12:54;11.50;99.90
44671;DHT22;48397;53.016;-2.260;2023-04-01T12:21:38;11.00;99.90
44671;DHT22;48397;53.016;-2.260;2023-04-01T12:32:19;10.70;99.90
44671;DHT22;48397;53.016;-2.260;2023-04-01T12:35:21;10.60;99.90
44671;DHT22;48397;53.016;-2.260;2023-04-01T12:54:01;10.80;99.90
44671;DHT22;48397;53.016;-2.260;2023-04-01T13:02:55;10.90;99.90
44671;DHT22;48397;53.016;-2.260;2023-04-01T13:05:35;10.70;99.90
44671;DHT22;48397;53.016;-2.260;2023-04-01T13:13:47;10.80;99.90
44671;DHT22;48397;53.016;-2.260;2023-04-01T13:16:31;10.70;99.90
44671;DHT22;48397;53.016;-2.260;2023-04-01T13:42:21;10.20;99.90
44671;DHT22;48397;53.016;-2.260;2023-04-01T13:55:49;10.10;99.90
44671;DHT22;48397;53.016;-2.260;2023-04-01T14:14:52;10.60;99.90
44671;DHT22;48397;53.016;-2.260;2023-04-01T14:17:43;10.60;99.90
44671;DHT22;48397;53.016;-2.260;2023-04-01T14:20:47;10.70;99.90
44671;DHT22;48397;53.016;-2.260;2023-04-01T14:24:13;10.90;99.90
44671;DHT22;48397;53.016;-2.260;2023-04-01T14:45:25;10.70;99.90
44671;DHT22;48397;53.016;-2.260;2023-04-01T14:48:32;10.70;99.90
44671;DHT22;48397;53.016;-2.260;2023-04-01T14:51:32;10.60;99.90
44671;DHT22;48397;53.016;-2.260;2023-04-01T14:54:17;10.60;99.90
44671;DHT22;48397;53.016;-2.260;2023-04-01T14:57:10;10.60;99.90
44671;DHT22;48397;53.016;-2.260;2023-04-01T14:59:51;10.50;99.90
44671;DHT22;48397;53.016;-2.260;2023-04-01T15:02:36;10.50;99.90
44671;DHT22;48397;53.016;-2.260;2023-04-01T15:08:10;10.40;99.90
44671;DHT22;48397;53.016;-2.260;2023-04-01T15:16:25;10.30;99.90
44671;DHT22;48397;53.016;-2.260;2023-04-01T15:22:15;10.40;99.90
44671;DHT22;48397;53.016;-2.260;2023-04-01T15:33:17;10.40;99.90
44671;DHT22;48397;53.016;-2.260;2023-04-01T15:36:00;10.30;99.90
44671;DHT22;48397;53.016;-2.260;2023-04-01T15:38:48;10.30;99.90
44671;DHT22;48397;53.016;-2.260;2023-04-01T15:43:54;10.20;99.90
44671;DHT22;48397;53.016;-2.260;2023-04-01T15:46:46;10.20;99.90
44671;DHT22;48397;53.016;-2.260;2023-04-01T15:57:08;10.20;99.90
44671;DHT22;48397;53.016;-2.260;2023-04-01T16:00:11;10.30;99.90
44671;DHT22;48397;53.016;-2.260;2023-04-01T16:06:16;10.30;99.90
44671;DHT22;48397;53.016;-2.260;2023-04-01T16:20:02;10.10;99.90
44671;DHT22;48397;53.016;-2.260;2023-04-01T16:29:06;10.00;99.90
44671;DHT22;48397;53.016;-2.260;2023-04-01T16:35:23;10.00;99.90
44671;DHT22;48397;53.016;-2.260;2023-04-01T16:38:16;9.90;99.90
44671;DHT22;48397;53.016;-2.260;2023-04-01T16:41:13;9.90;99.90
44671;DHT22;48397;53.016;-2.260;2023-04-01T16:43:47;10.00;99.90
44671;DHT22;48397;53.016;-2.260;2023-04-01T16:46:39;10.00;99.90
44671;DHT22;48397;53.016;-2.260;2023-04-01T16:59:46;10.10;99.90
44671;DHT22;48397;53.016;-2.260;2023-04-01T17:02:23;10.10;99.90
44671;DHT22;48397;53.016;-2.260;2023-04-01T17:05:12;10.10;99.90
44671;DHT22;48397;53.016;-2.260;2023-04-01T17:07:48;10.00;99.90
44671;DHT22;48397;53.016;-2.260;2023-04-01T17:14:00;9.90;99.90
44671;DHT22;48397;53.016;-2.260;2023-04-01T17:22:35;9.70;99.90
44671;DHT22;48397;53.016;-2.260;2023-04-01T17:25:39;9.60;99.90
44671;DHT22;48397;53.016;-2.260;2023-04-01T17:28:17;9.60;99.90
44671;DHT22;48397;53.016;-2.260;2023-04-01T17:44:49;9.30;99.90
44671;DHT22;48397;53.016;-2.260;2023-04-01T17:53:51;9.40;99.90
44671;DHT22;48397;53.016;-2.260;2023-04-01T18:02:07;9.40;99.90
44671;DHT22;48397;53.016;-2.260;2023-04-01T18:11:19;9.30;99.90
44671;DHT22;48397;53.016;-2.260;2023-04-01T18:17:09;9.20;99.90
44671;DHT22;48397;53.016;-2.260;2023-04-01T18:19:56;9.20;99.90
44671;DHT22;48397;53.016;-2.260;2023-04-01T18:22:41;9.20;99.90
44671;DHT22;48397;53.016;-2.260;2023-04-01T18:25:41;9.10;99.90
44671;DHT22;48397;53.016;-2.260;2023-04-01T18:44:47;9.00;99.90
44671;DHT22;48397;53.016;-2.260;2023-04-01T18:47:43;8.90;99.90
44671;DHT22;48397;53.016;-2.260;2023-04-01T18:50:30;8.80;99.90
44671;DHT22;48397;53.016;-2.260;2023-04-01T18:55:59;8.80;99.90
44671;DHT22;48397;53.016;-2.260;2023-04-01T18:58:37;8.80;99.90
44671;DHT22;48397;53.016;-2.260;2023-04-01T19:01:26;8.80;99.90
44671;DHT22;48397;53.016;-2.260;2023-04-01T19:09:29;8.90;99.90
44671;DHT22;48397;53.016;-2.260;2023-04-01T19:15:25;8.80;99.90
44671;DHT22;48397;53.016;-2.260;2023-04-01T19:18:28;8.80;99.90
44671;DHT22;48397;53.016;-2.260;2023-04-01T19:21:21;8.90;99.90
44671;DHT22;48397;53.016;-2.260;2023-04-01T19:26:44;8.80;99.90
44671;DHT22;48397;53.016;-2.260;2023-04-01T19:32:25;8.80;99.90
44671;DHT22;48397;53.016;-2.260;2023-04-01T19:36:00;8.70;99.90
44671;DHT22;48397;53.016;-2.260;2023-04-01T19:46:44;8.80;99.90
44671;DHT22;48397;53.016;-2.260;2023-04-01T20:00:37;8.80;99.90
44671;DHT22;48397;53.016;-2.260;2023-04-01T20:06:02;8.80;99.90
44671;DHT22;48397;53.016;-2.260;2023-04-01T20:11:47;8.80;99.90
44671;DHT22;48397;53.016;-2.260;2023-04-01T20:14:53;8.90;99.90
44671;DHT22;48397;53.016;-2.260;2023-04-01T20:19:55;8.80;99.90
44671;DHT22;48397;53.016;-2.260;2023-04-01T20:28:24;8.90;99.90
44671;DHT22;48397;53.016;-2.260;2023-04-01T20:36:34;10.30;99.90
44671;DHT22;48397;53.016;-2.260;2023-04-01T20:45:10;8.80;99.90
44671;DHT22;48397;53.016;-2.260;2023-04-01T20:50:34;8.80;99.90
44671;DHT22;48397;53.016;-2.260;2023-04-01T20:53:20;8.80;99.90
44671;DHT22;48397;53.016;-2.260;2023-04-01T20:59:12;10.10;99.90
44671;DHT22;48397;53.016;-2.260;2023-04-01T21:13:10;8.80;99.90
44671;DHT22;48397;53.016;-2.260;2023-04-01T21:35:51;8.70;99.90
44671;DHT22;48397;53.016;-2.260;2023-04-01T21:44:13;8.70;99.90
44671;DHT22;48397;53.016;-2.260;2023-04-01T21:52:45;8.70;99.90
44671;DHT22;48397;53.016;-2.260;2023-04-01T21:55:43;8.60;99.90
44671;DHT22;48397;53.016;-2.260;2023-04-01T22:10:24;8.60;99.90
44671;DHT22;48397;53.016;-2.260;2023-04-01T22:13:35;8.60;99.90
44671;DHT22;48397;53.016;-2.260;2023-04-01T22:16:23;8.70;99.90
44671;DHT22;48397;53.016;-2.260;2023-04-01T22:22:07;8.60;99.90
44671;DHT22;48397;53.016;-2.260;2023-04-01T22:27:52;8.60;99.90
44671;DHT22;48397;53.016;-2.260;2023-04-01T22:30:25;8.50;99.90
44671;DHT22;48397;53.016;-2.260;2023-04-01T22:33:34;8.50;99.90
44671;DHT22;48397;53.016;-2.260;2023-04-01T22:36:13;8.40;99.90
44671;DHT22;48397;53.016;-2.260;2023-04-01T22:43:57;8.30;99.90
44671;DHT22;48397;53.016;-2.260;2023-04-01T22:49:03;8.40;99.90
44671;DHT22;48397;53.016;-2.260;2023-04-01T22:54:37;8.40;99.90
44671;DHT22;48397;53.016;-2.260;2023-04-01T22:59:58;8.40;99.90
44671;DHT22;48397;53.016;-2.260;2023-04-01T23:02:35;8.40;99.90
44671;DHT22;48397;53.016;-2.260;2023-04-01T23:05:06;8.40;99.90
44671;DHT22;48397;53.016;-2.260;2023-04-01T23:07:45;8.50;99.90
44671;DHT22;48397;53.016;-2.260;2023-04-01T23:10:21;8.40;99.90
44671;DHT22;48397;53.016;-2.260;2023-04-01T23:12:52;9.90;99.90
44671;DHT22;48397;53.016;-2.260;2023-04-01T23:15:21;8.50;99.90
44671;DHT22;48397;53.016;-2.260;2023-04-01T23:26:49;8.50;99.90
44671;DHT22;48397;53.016;-2.260;2023-04-01T23:28:57;8.50;99.90
44671;DHT22;48397;53.016;-2.260;2023-04-01T23:31:47;8.60;99.90
44671;DHT22;48397;53.016;-2.260;2023-04-01T23:34:24;8.60;99.90
44671;DHT22;48397;53.016;-2.260;2023-04-01T23:36:54;8.70;99.90
44671;DHT22;48397;53.016;-2.260;2023-04-01T23:39:26;8.60;99.90
44671;DHT22;48397;53.016;-2.260;2023-04-01T23:41:59;8.50;99.90
44671;DHT22;48397;53.016;-2.260;2023-04-01T23:44:28;8.40;99.90
44671;DHT22;48397;53.016;-2.260;2023-04-01T23:46:58;8.40;99.90
44671;DHT22;48397;53.016;-2.260;2023-04-01T23:49:56;8.40;99.90
44671;DHT22;48397;53.016;-2.260;2023-04-01T23:52:35;8.40;99.90
